METAR Data
IDs: Format: Raw Decoded Include TAF

Data at: 2250 UTC 02 Aug 2021

KCCB 022235Z AUTO 26014G19KT 10SM CLR 37/03 A2999 RMK AO2